This is the latest recevied weather packets stored in our database for station/object WD4HMR. If no packets are shown the sender has not sent any weather packets the latest 10 day(s).
| Time | Temp. | Humidity | Pressure | Rain* | Wind** | Luminosity | Snow |
|---|---|---|---|---|---|---|---|
| 1777489804 | 25° C | 83% | 1013.8 hPa | 0 mm | - | 1220 W/m² | - |
| 1777488304 | 25° C | 83% | 1014.2 hPa | 0 mm | - | 1251 W/m² | - |
| 1777487403 | 23.89° C | 86% | 1014.1 hPa | 0 mm | - | 1262 W/m² | - |
| 1777486204 | 23.89° C | 85% | 1014.2 hPa | 0 mm | - | 1265 W/m² | - |
| 1777485904 | 23.89° C | 87% | 1014.1 hPa | 0 mm | - | 1264 W/m² | - |
| 1777485304 | 24.44° C | 86% | 1014.3 hPa | 0 mm | - | 1260 W/m² | - |
| 1777485005 | 24.44° C | 85% | 1014.2 hPa | 0 mm | - | 1256 W/m² | - |
| 1777484703 | 24.44° C | 85% | 1014.3 hPa | 0 mm | - | 1252 W/m² | - |
| 1777483804 | 23.33° C | 88% | 1014 hPa | 0 mm | - | 1236 W/m² | - |
| 1777483504 | 22.78° C | 88% | 1014.1 hPa | 0 mm | - | 1229 W/m² | - |
| 1777483204 | 22.78° C | 90% | 1013.9 hPa | 0 mm | - | 1221 W/m² | - |
| 1777482604 | 22.22° C | 92% | 1013.6 hPa | 0 mm | - | 1204 W/m² | - |
| 1777482004 | 22.22° C | 91% | 1013.9 hPa | 0 mm | - | 1184 W/m² | - |
| 1777481103 | 22.22° C | 90% | 1014.1 hPa | 0 mm | - | 1149 W/m² | - |
| 1777480804 | 22.22° C | 90% | 1014.1 hPa | 0 mm | - | 1136 W/m² | - |
| 1777479904 | 22.22° C | 90% | 1014.3 hPa | 0 mm | - | 1094 W/m² | - |
| 1777478404 | 22.22° C | 89% | 1014.5 hPa | 0 mm | - | 1013 W/m² | - |
| 1777477504 | 22.22° C | 89% | 1014.4 hPa | 0 mm | - | 959 W/m² | - |
| 1777477204 | 22.22° C | 89% | 1014.5 hPa | 0 mm | - | 941 W/m² | - |
| 1777475703 | 22.22° C | 89% | 1014.6 hPa | 0 mm | - | 842 W/m² | - |
| 1777474504 | 22.22° C | 89% | 1014.5 hPa | 0 mm | - | 759 W/m² | - |
| 1777473303 | 21.11° C | 91% | 1014.4 hPa | 0 mm | - | 673 W/m² | - |
| 1777472104 | 20.56° C | 92% | 1014.4 hPa | 0 mm | - | 586 W/m² | - |
| 1777471804 | 20.56° C | 92% | 1014.2 hPa | 0 mm | - | 565 W/m² | - |
| 1777470604 | 20° C | 93% | 1014 hPa | 0 mm | - | 479 W/m² | - |
* Rain latest hour (hover to see other rain measurements)
** Current wind speed in m/s (hover to see current wind gust speed)